createdAt,value
2023-03-01T00:04:31.935Z,83.78
2023-03-01T00:09:28.889Z,85.04
2023-03-01T00:14:26.197Z,86.00
2023-03-01T00:19:23.950Z,86.69
2023-03-01T00:24:20.811Z,87.15
2023-03-01T00:29:17.837Z,86.82
2023-03-01T00:34:17.828Z,86.17
2023-03-01T00:39:19.031Z,86.64
2023-03-01T00:44:18.196Z,87.42
2023-03-01T00:49:15.662Z,87.61
2023-03-01T00:54:24.657Z,88.75
2023-03-01T00:59:25.981Z,88.34
2023-03-01T01:04:23.124Z,88.94
2023-03-01T01:09:20.100Z,88.98
2023-03-01T01:14:19.322Z,89.33
2023-03-01T01:19:21.792Z,89.42
2023-03-01T01:24:19.573Z,88.95
2023-03-01T01:29:19.052Z,88.93
2023-03-01T01:34:18.116Z,89.43
2023-03-01T01:39:15.024Z,90.07
2023-03-01T01:44:20.884Z,89.90
2023-03-01T01:49:20.083Z,90.20
2023-03-01T01:54:23.290Z,90.47
2023-03-01T01:59:24.769Z,89.88
2023-03-01T02:04:22.449Z,90.87
2023-03-01T02:09:22.794Z,91.03
2023-03-01T02:14:20.472Z,91.49
2023-03-01T02:19:29.226Z,90.82
2023-03-01T02:24:33.067Z,91.08
2023-03-01T02:29:30.876Z,90.79
2023-03-01T02:34:29.613Z,91.50
2023-03-01T02:39:31.078Z,91.33
2023-03-01T02:44:30.712Z,91.22
2023-03-01T02:49:29.424Z,91.46
2023-03-01T02:54:32.358Z,91.83
2023-03-01T02:59:35.591Z,91.79
2023-03-01T03:04:32.648Z,91.26
2023-03-01T03:09:29.665Z,90.43
2023-03-01T03:14:27.116Z,90.72
2023-03-01T03:19:25.003Z,89.97
2023-03-01T03:24:21.872Z,90.49
2023-03-01T03:29:18.784Z,90.67
2023-03-01T03:34:18.354Z,91.28
2023-03-01T03:39:16.012Z,90.84
2023-03-01T03:44:13.137Z,91.10
2023-03-01T03:49:10.003Z,91.03
2023-03-01T03:54:06.822Z,91.44
2023-03-01T03:59:06.291Z,92.17
2023-03-01T04:04:04.524Z,92.28
2023-03-01T04:09:02.887Z,91.65
2023-03-01T04:14:00.471Z,92.26
2023-03-01T04:18:59.988Z,92.38
2023-03-01T04:23:57.224Z,92.19
2023-03-01T04:28:54.115Z,91.85
2023-03-01T04:33:52.888Z,91.94
2023-03-01T04:38:51.188Z,91.69
2023-03-01T04:43:49.224Z,91.90
2023-03-01T04:48:47.656Z,91.78
2023-03-01T04:53:45.048Z,90.77
2023-03-01T04:58:42.979Z,90.60
2023-03-01T05:03:43.856Z,90.57
2023-03-01T05:08:51.667Z,90.89
2023-03-01T05:13:55.402Z,90.83
2023-03-01T05:18:52.506Z,91.37
2023-03-01T05:23:49.789Z,90.96
2023-03-01T05:28:46.895Z,91.94
2023-03-01T05:33:44.516Z,92.10
2023-03-01T05:38:41.583Z,92.14
2023-03-01T05:43:39.428Z,92.09
2023-03-01T05:48:36.542Z,91.68
2023-03-01T05:53:34.023Z,91.14
2023-03-01T05:58:31.156Z,91.35
2023-03-01T06:03:28.009Z,91.52
2023-03-01T06:08:27.140Z,91.57
2023-03-01T06:13:25.209Z,91.80
2023-03-01T06:18:21.940Z,91.62
2023-03-01T06:23:18.689Z,92.40
2023-03-01T06:28:15.525Z,92.00
2023-03-01T06:33:13.545Z,91.92
2023-03-01T06:38:10.613Z,91.91
2023-03-01T06:43:08.261Z,91.88
2023-03-01T06:48:06.435Z,91.84
2023-03-01T06:53:04.484Z,91.20
2023-03-01T06:58:02.995Z,91.16
2023-03-01T07:03:02.162Z,90.99
2023-03-01T07:07:59.249Z,90.86
2023-03-01T07:12:58.114Z,90.81
2023-03-01T07:17:55.240Z,90.65
2023-03-01T07:22:55.505Z,90.89
2023-03-01T07:27:53.079Z,90.54
2023-03-01T07:32:50.731Z,90.40
2023-03-01T07:37:47.636Z,90.27
2023-03-01T07:42:44.543Z,89.91
2023-03-01T07:47:41.395Z,89.68
2023-03-01T07:52:39.023Z,89.91
2023-03-01T07:57:36.603Z,89.63
2023-03-01T08:02:33.439Z,89.64
2023-03-01T08:07:30.449Z,90.21
2023-03-01T08:12:28.649Z,89.38
2023-03-01T08:17:25.648Z,89.74
2023-03-01T08:22:22.566Z,88.27
2023-03-01T08:27:19.353Z,88.25
2023-03-01T08:32:16.998Z,88.28
2023-03-01T08:37:13.890Z,87.96
2023-03-01T08:42:10.824Z,87.65
2023-03-01T08:47:07.649Z,87.16
2023-03-01T08:52:05.096Z,87.03
2023-03-01T08:57:03.049Z,86.95
2023-03-01T09:01:59.965Z,87.51
2023-03-01T09:06:56.924Z,86.90
2023-03-01T09:11:54.553Z,87.17
2023-03-01T09:16:51.513Z,86.65
2023-03-01T09:21:53.185Z,87.57
2023-03-01T09:26:51.671Z,86.31
2023-03-01T09:31:49.389Z,86.29
2023-03-01T09:36:48.973Z,86.26
2023-03-01T09:41:50.356Z,86.76
2023-03-01T09:46:47.956Z,85.66
2023-03-01T09:51:55.555Z,86.11
2023-03-01T09:57:07.113Z,85.16
2023-03-01T10:02:22.450Z,85.33
2023-03-01T10:07:32.904Z,85.22
2023-03-01T10:12:37.644Z,85.05
2023-03-01T10:17:38.848Z,85.68
2023-03-01T10:22:37.925Z,85.54
2023-03-01T10:27:44.172Z,85.89
2023-03-01T10:32:41.391Z,85.61
2023-03-01T10:38:05.369Z,84.93
2023-03-01T10:43:04.929Z,85.98
2023-03-01T10:48:14.479Z,85.46
2023-03-01T10:53:31.200Z,85.63
2023-03-01T10:58:29.127Z,85.02
2023-03-01T11:03:33.258Z,82.18
2023-03-01T11:08:37.471Z,81.29
2023-03-01T11:13:37.494Z,81.11
2023-03-01T11:18:47.004Z,81.89
2023-03-01T11:24:03.440Z,82.00
2023-03-01T11:29:09.496Z,81.08
2023-03-01T11:34:14.325Z,81.22
2023-03-01T11:39:21.648Z,81.13
2023-03-01T11:44:27.192Z,81.08
2023-03-01T11:49:57.961Z,81.50
2023-03-01T11:55:25.595Z,81.74
2023-03-01T12:00:37.491Z,80.08
2023-03-01T12:06:03.816Z,80.15
2023-03-01T12:11:11.760Z,79.60
2023-03-01T12:16:38.721Z,80.70
2023-03-01T12:21:48.223Z,80.36
2023-03-01T12:26:55.838Z,80.66
2023-03-01T12:32:19.858Z,80.69
2023-03-01T12:37:26.328Z,80.76
2023-03-01T12:42:32.718Z,81.28
2023-03-01T12:47:45.954Z,81.27
2023-03-01T12:52:48.436Z,80.71
2023-03-01T12:57:53.331Z,80.05
2023-03-01T13:02:57.174Z,79.85
2023-03-01T13:08:00.488Z,79.76
2023-03-01T13:13:14.480Z,79.76
2023-03-01T13:18:41.391Z,78.40
2023-03-01T13:23:39.767Z,77.62
2023-03-01T13:28:47.557Z,76.45
2023-03-01T13:33:47.946Z,76.95
2023-03-01T13:38:49.304Z,76.66
2023-03-01T13:43:48.879Z,76.27
2023-03-01T13:48:48.839Z,76.92
2023-03-01T13:53:48.635Z,77.76
2023-03-01T13:58:55.351Z,77.89
2023-03-01T14:03:55.952Z,77.15
2023-03-01T14:09:06.585Z,78.23
2023-03-01T14:14:33.142Z,77.85
2023-03-01T14:19:34.074Z,77.70
2023-03-01T14:24:45.607Z,77.63
2023-03-01T14:29:59.289Z,78.06
2023-03-01T14:34:58.288Z,78.19
2023-03-01T14:39:56.751Z,77.46
2023-03-01T14:44:56.730Z,76.99
2023-03-01T14:49:58.557Z,77.04
2023-03-01T14:54:57.262Z,76.97
2023-03-01T14:59:56.343Z,77.12
2023-03-01T15:04:57.339Z,77.39
2023-03-01T15:09:56.564Z,77.43
2023-03-01T15:15:04.184Z,77.89
2023-03-01T15:20:04.476Z,77.52
2023-03-01T15:25:01.302Z,77.29
2023-03-01T15:30:06.342Z,77.61
2023-03-01T15:35:41.402Z,77.21
2023-03-01T15:40:50.976Z,77.99
2023-03-01T15:46:05.140Z,76.82
2023-03-01T15:51:02.214Z,76.47
2023-03-01T15:56:06.318Z,76.67
2023-03-01T16:01:05.771Z,76.17
2023-03-01T16:06:03.718Z,75.79
2023-03-01T16:11:07.577Z,75.91
2023-03-01T16:16:06.330Z,76.66
2023-03-01T16:21:03.356Z,76.50
2023-03-01T16:26:03.645Z,76.54
2023-03-01T16:31:01.843Z,77.20
2023-03-01T16:36:00.631Z,77.09
2023-03-01T16:40:57.605Z,76.75
2023-03-01T16:45:54.812Z,76.94
2023-03-01T16:51:00.896Z,76.05
2023-03-01T16:55:59.128Z,75.36
2023-03-01T17:00:57.029Z,75.95
2023-03-01T17:05:54.730Z,76.52
2023-03-01T17:10:52.371Z,77.27
2023-03-01T17:15:49.209Z,76.93
2023-03-01T17:20:46.159Z,77.48
2023-03-01T17:25:44.683Z,77.58
2023-03-01T17:30:44.483Z,77.71
2023-03-01T17:35:41.488Z,78.33
2023-03-01T17:40:39.316Z,77.96
2023-03-01T17:45:40.921Z,76.58
2023-03-01T17:50:39.796Z,76.90
2023-03-01T17:55:40.262Z,76.80
2023-03-01T18:00:37.340Z,77.25
2023-03-01T18:05:35.835Z,77.15
2023-03-01T18:10:35.870Z,77.11
2023-03-01T18:15:33.186Z,76.88
2023-03-01T18:20:30.272Z,76.93
2023-03-01T18:25:27.201Z,77.08
2023-03-01T18:30:24.916Z,77.35
2023-03-01T18:35:22.577Z,77.00
2023-03-01T18:40:19.675Z,77.53
2023-03-01T18:45:18.771Z,76.84
2023-03-01T18:50:16.756Z,76.32
2023-03-01T18:55:14.035Z,76.39
2023-03-01T19:00:12.139Z,76.65
2023-03-01T19:05:09.525Z,75.64
2023-03-01T19:10:08.722Z,76.64
2023-03-01T19:15:06.922Z,77.10
2023-03-01T19:20:04.852Z,77.82
2023-03-01T19:25:01.875Z,77.87
2023-03-01T19:29:59.882Z,77.67
2023-03-01T19:34:58.283Z,77.98
2023-03-01T19:39:55.740Z,78.10
2023-03-01T19:44:52.761Z,78.43
2023-03-01T19:49:50.578Z,78.77
2023-03-01T19:54:48.035Z,77.50
2023-03-01T19:59:45.465Z,77.86
2023-03-01T20:04:42.376Z,78.82
2023-03-01T20:09:40.984Z,79.06
2023-03-01T20:14:38.803Z,79.11
2023-03-01T20:19:35.781Z,78.76
2023-03-01T20:24:32.813Z,78.87
2023-03-01T20:29:32.167Z,78.76
2023-03-01T20:34:28.993Z,79.00
2023-03-01T20:39:25.899Z,78.69
2023-03-01T20:44:23.322Z,78.96
2023-03-01T20:49:21.353Z,78.79
2023-03-01T20:54:18.204Z,78.85
2023-03-01T20:59:15.368Z,79.47
2023-03-01T21:04:13.047Z,78.52
2023-03-01T21:09:13.846Z,78.26
2023-03-01T21:14:11.859Z,78.55
2023-03-01T21:19:08.669Z,79.01
2023-03-01T21:24:09.465Z,78.56
2023-03-01T21:29:07.282Z,77.46
2023-03-01T21:34:06.199Z,78.02
2023-03-01T21:39:04.741Z,77.56
2023-03-01T21:44:06.149Z,77.74
2023-03-01T21:49:04.341Z,77.44
2023-03-01T21:54:01.234Z,77.96
2023-03-01T21:58:58.794Z,77.73
2023-03-01T22:03:56.713Z,77.46
2023-03-01T22:08:57.943Z,77.63
2023-03-01T22:13:56.345Z,77.58
2023-03-01T22:18:53.920Z,78.21
2023-03-01T22:23:54.126Z,78.88
2023-03-01T22:28:57.269Z,79.59
2023-03-01T22:33:56.191Z,80.27
2023-03-01T22:38:59.290Z,80.27
2023-03-01T22:44:02.828Z,81.27
2023-03-01T22:48:59.982Z,82.36
2023-03-01T22:53:57.901Z,83.98
2023-03-01T22:58:55.533Z,84.64
2023-03-01T23:03:53.827Z,85.36
2023-03-01T23:08:51.644Z,85.92
2023-03-01T23:13:49.576Z,86.20
2023-03-01T23:18:49.377Z,86.57
2023-03-01T23:23:50.501Z,86.18
2023-03-01T23:28:49.139Z,86.75
2023-03-01T23:33:47.394Z,86.76
2023-03-01T23:38:44.941Z,86.73
2023-03-01T23:43:45.276Z,87.35
2023-03-01T23:48:43.142Z,87.70
2023-03-01T23:53:54.232Z,88.35
2023-03-01T23:58:52.567Z,88.65
